sensor_id;sensor_type;location;lat;lon;timestamp;pressure;altitude;pressure_sealevel;temperature;humidity
64503;BME280;50971;51.940;21.258;2024-03-08T00:42:46;101497.90;;;-3.92;100.00
64503;BME280;50971;51.940;21.258;2024-03-08T00:52:48;101495.44;;;-3.89;100.00
64503;BME280;50971;51.940;21.258;2024-03-08T01:02:49;101493.73;;;-4.09;100.00
64503;BME280;50971;51.940;21.258;2024-03-08T01:12:51;101484.45;;;-4.40;100.00
64503;BME280;50971;51.940;21.258;2024-03-08T01:22:53;101478.73;;;-4.67;100.00
64503;BME280;50971;51.940;21.258;2024-03-08T01:32:55;101476.92;;;-4.93;100.00
64503;BME280;50971;51.940;21.258;2024-03-08T01:42:57;101471.21;;;-5.18;100.00
64503;BME280;50971;51.940;21.258;2024-03-08T01:52:58;101466.75;;;-5.38;100.00
64503;BME280;50971;51.940;21.258;2024-03-08T02:03:01;101466.09;;;-5.54;100.00
64503;BME280;50971;51.940;21.258;2024-03-08T02:13:04;101455.55;;;-5.65;100.00
64503;BME280;50971;51.940;21.258;2024-03-08T02:23:06;101447.20;;;-5.52;100.00
64503;BME280;50971;51.940;21.258;2024-03-08T02:33:08;101447.15;;;-5.32;100.00
64503;BME280;50971;51.940;21.258;2024-03-08T02:43:14;101446.70;;;-5.13;100.00
64503;BME280;50971;51.940;21.258;2024-03-08T02:53:17;101438.45;;;-4.99;100.00
64503;BME280;50971;51.940;21.258;2024-03-08T03:03:20;101435.35;;;-4.89;100.00
64503;BME280;50971;51.940;21.258;2024-03-08T03:13:23;101431.16;;;-4.87;100.00
64503;BME280;50971;51.940;21.258;2024-03-08T03:23:25;101430.98;;;-5.02;100.00
64503;BME280;50971;51.940;21.258;2024-03-08T03:33:28;101431.94;;;-5.24;100.00
64503;BME280;50971;51.940;21.258;2024-03-08T03:43:30;101426.15;;;-5.52;100.00
64503;BME280;50971;51.940;21.258;2024-03-08T03:53:31;101424.69;;;-5.76;100.00
64503;BME280;50971;51.940;21.258;2024-03-08T04:03:33;101416.73;;;-5.99;100.00
64503;BME280;50971;51.940;21.258;2024-03-08T04:13:35;101411.58;;;-6.02;100.00
64503;BME280;50971;51.940;21.258;2024-03-08T04:23:38;101407.90;;;-5.82;100.00
64503;BME280;50971;51.940;21.258;2024-03-08T04:33:40;101408.36;;;-5.63;100.00
64503;BME280;50971;51.940;21.258;2024-03-08T04:43:42;101412.25;;;-5.48;100.00
64503;BME280;50971;51.940;21.258;2024-03-08T04:53:44;101409.27;;;-5.38;100.00
64503;BME280;50971;51.940;21.258;2024-03-08T05:03:46;101406.61;;;-5.28;100.00
64503;BME280;50971;51.940;21.258;2024-03-08T05:13:51;101413.23;;;-5.40;100.00
64503;BME280;50971;51.940;21.258;2024-03-08T05:23:53;101410.31;;;-5.58;100.00
64503;BME280;50971;51.940;21.258;2024-03-08T05:33:55;101408.85;;;-5.65;100.00
64503;BME280;50971;51.940;21.258;2024-03-08T05:43:57;101405.92;;;-5.60;100.00
64503;BME280;50971;51.940;21.258;2024-03-08T05:54:03;101404.54;;;-5.42;100.00
64503;BME280;50971;51.940;21.258;2024-03-08T06:04:07;101407.08;;;-4.60;100.00
64503;BME280;50971;51.940;21.258;2024-03-08T06:14:09;101409.76;;;-3.75;100.00
64503;BME280;50971;51.940;21.258;2024-03-08T06:24:11;101414.92;;;-3.37;100.00
64503;BME280;50971;51.940;21.258;2024-03-08T06:34:13;101416.48;;;-3.07;100.00
64503;BME280;50971;51.940;21.258;2024-03-08T06:44:17;101420.73;;;-2.67;100.00
64503;BME280;50971;51.940;21.258;2024-03-08T06:54:18;101413.77;;;-2.02;100.00
64503;BME280;50971;51.940;21.258;2024-03-08T07:04:20;101415.05;;;-1.29;100.00
64503;BME280;50971;51.940;21.258;2024-03-08T07:14:23;101412.19;;;-0.63;100.00
64503;BME280;50971;51.940;21.258;2024-03-08T07:24:25;101413.67;;;-0.21;100.00
64503;BME280;50971;51.940;21.258;2024-03-08T07:34:45;101405.02;;;0.11;100.00
64503;BME280;50971;51.940;21.258;2024-03-08T07:44:47;101400.79;;;0.38;100.00
64503;BME280;50971;51.940;21.258;2024-03-08T07:54:50;101398.86;;;0.70;100.00
64503;BME280;50971;51.940;21.258;2024-03-08T08:04:52;101397.21;;;1.30;100.00
64503;BME280;50971;51.940;21.258;2024-03-08T08:14:53;101392.27;;;2.06;100.00
64503;BME280;50971;51.940;21.258;2024-03-08T08:24:55;101391.08;;;2.61;100.00
64503;BME280;50971;51.940;21.258;2024-03-08T08:34:57;101392.16;;;3.00;100.00
64503;BME280;50971;51.940;21.258;2024-03-08T08:45:01;101383.66;;;3.36;100.00
64503;BME280;50971;51.940;21.258;2024-03-08T08:55:18;101375.92;;;3.71;100.00
64503;BME280;50971;51.940;21.258;2024-03-08T09:05:23;101370.55;;;4.26;100.00
64503;BME280;50971;51.940;21.258;2024-03-08T09:15:25;101358.02;;;4.73;100.00
64503;BME280;50971;51.940;21.258;2024-03-08T09:25:31;101347.17;;;5.02;100.00
64503;BME280;50971;51.940;21.258;2024-03-08T09:35:33;101340.53;;;5.27;100.00
64503;BME280;50971;51.940;21.258;2024-03-08T09:45:36;101339.21;;;5.61;100.00
64503;BME280;50971;51.940;21.258;2024-03-08T09:55:41;101328.80;;;5.83;100.00
64503;BME280;50971;51.940;21.258;2024-03-08T10:05:46;101322.52;;;5.94;100.00
64503;BME280;50971;51.940;21.258;2024-03-08T10:15:47;101316.38;;;6.02;100.00
64503;BME280;50971;51.940;21.258;2024-03-08T10:25:49;101306.90;;;6.07;100.00
64503;BME280;50971;51.940;21.258;2024-03-08T10:35:52;101301.20;;;6.20;99.64
64503;BME280;50971;51.940;21.258;2024-03-08T10:56:16;101288.92;;;5.98;98.95
64503;BME280;50971;51.940;21.258;2024-03-08T11:06:31;101285.45;;;5.77;100.00
64503;BME280;50971;51.940;21.258;2024-03-08T11:16:43;101280.80;;;5.70;100.00
64503;BME280;50971;51.940;21.258;2024-03-08T11:26:47;101274.52;;;5.61;100.00
64503;BME280;50971;51.940;21.258;2024-03-08T11:36:48;101265.22;;;5.56;100.00
64503;BME280;50971;51.940;21.258;2024-03-08T11:46:50;101255.70;;;5.51;100.00
64503;BME280;50971;51.940;21.258;2024-03-08T11:56:52;101246.60;;;5.39;100.00
64503;BME280;50971;51.940;21.258;2024-03-08T12:06:55;101231.20;;;5.26;99.81
64503;BME280;50971;51.940;21.258;2024-03-08T12:16:57;101216.46;;;5.10;99.05
64503;BME280;50971;51.940;21.258;2024-03-08T12:26:59;101212.94;;;5.21;97.98
64503;BME280;50971;51.940;21.258;2024-03-08T12:37:01;101202.91;;;5.40;99.06
64503;BME280;50971;51.940;21.258;2024-03-08T12:47:03;101194.73;;;5.53;97.03
64503;BME280;50971;51.940;21.258;2024-03-08T12:57:05;101183.98;;;5.57;90.97
64503;BME280;50971;51.940;21.258;2024-03-08T13:07:07;101172.65;;;5.63;84.40
64503;BME280;50971;51.940;21.258;2024-03-08T13:17:09;101161.64;;;5.71;79.39
64503;BME280;50971;51.940;21.258;2024-03-08T13:27:13;101149.70;;;5.72;77.93
64503;BME280;50971;51.940;21.258;2024-03-08T13:37:27;101139.46;;;5.70;77.21
64503;BME280;50971;51.940;21.258;2024-03-08T13:47:29;101127.34;;;5.69;74.84
64503;BME280;50971;51.940;21.258;2024-03-08T13:57:32;101120.05;;;5.64;73.68
64503;BME280;50971;51.940;21.258;2024-03-08T14:07:38;101111.66;;;5.68;73.53
64503;BME280;50971;51.940;21.258;2024-03-08T14:17:41;101105.63;;;5.61;78.44
64503;BME280;50971;51.940;21.258;2024-03-08T14:27:44;101100.17;;;5.43;77.98
64503;BME280;50971;51.940;21.258;2024-03-08T14:37:46;101094.36;;;5.38;74.83
64503;BME280;50971;51.940;21.258;2024-03-08T14:47:48;101084.98;;;5.35;77.98
64503;BME280;50971;51.940;21.258;2024-03-08T14:57:51;101074.02;;;5.07;80.40
64503;BME280;50971;51.940;21.258;2024-03-08T15:07:54;101064.59;;;4.71;82.34
64503;BME280;50971;51.940;21.258;2024-03-08T15:17:56;101061.27;;;4.43;85.63
64503;BME280;50971;51.940;21.258;2024-03-08T15:28:00;101056.23;;;4.23;80.76
64503;BME280;50971;51.940;21.258;2024-03-08T15:38:06;101049.37;;;3.97;84.80
64503;BME280;50971;51.940;21.258;2024-03-08T15:48:08;101046.50;;;3.65;93.07
64503;BME280;50971;51.940;21.258;2024-03-08T15:58:10;101041.27;;;3.35;98.54
64503;BME280;50971;51.940;21.258;2024-03-08T16:08:17;101042.39;;;3.10;100.00
64503;BME280;50971;51.940;21.258;2024-03-08T16:18:21;101040.16;;;2.73;100.00
64503;BME280;50971;51.940;21.258;2024-03-08T16:28:24;101044.77;;;2.24;100.00
64503;BME280;50971;51.940;21.258;2024-03-08T16:38:40;101044.79;;;1.76;100.00
64503;BME280;50971;51.940;21.258;2024-03-08T16:48:45;101043.64;;;1.40;100.00
64503;BME280;50971;51.940;21.258;2024-03-08T16:58:47;101046.35;;;1.07;100.00
64503;BME280;50971;51.940;21.258;2024-03-08T17:08:50;101044.02;;;0.73;100.00
64503;BME280;50971;51.940;21.258;2024-03-08T17:18:53;101042.13;;;0.55;100.00
64503;BME280;50971;51.940;21.258;2024-03-08T17:28:56;101037.55;;;0.47;100.00
64503;BME280;50971;51.940;21.258;2024-03-08T17:38:58;101033.64;;;0.41;100.00
64503;BME280;50971;51.940;21.258;2024-03-08T17:49:00;101036.41;;;0.30;100.00
64503;BME280;50971;51.940;21.258;2024-03-08T17:59:01;101039.29;;;0.01;100.00
64503;BME280;50971;51.940;21.258;2024-03-08T18:09:05;101038.80;;;-0.39;100.00
64503;BME280;50971;51.940;21.258;2024-03-08T18:19:12;101038.86;;;-0.80;100.00
64503;BME280;50971;51.940;21.258;2024-03-08T18:29:21;101036.09;;;-1.09;100.00
64503;BME280;50971;51.940;21.258;2024-03-08T18:39:23;101035.81;;;-1.35;100.00
64503;BME280;50971;51.940;21.258;2024-03-08T18:49:28;101035.14;;;-1.66;100.00
64503;BME280;50971;51.940;21.258;2024-03-08T18:59:30;101033.12;;;-1.93;100.00
64503;BME280;50971;51.940;21.258;2024-03-08T19:09:35;101034.43;;;-1.91;100.00
64503;BME280;50971;51.940;21.258;2024-03-08T19:19:37;101032.38;;;-1.80;100.00
64503;BME280;50971;51.940;21.258;2024-03-08T19:29:40;101026.96;;;-1.71;100.00
64503;BME280;50971;51.940;21.258;2024-03-08T19:39:41;101024.77;;;-1.67;100.00
64503;BME280;50971;51.940;21.258;2024-03-08T19:49:43;101024.86;;;-1.69;100.00
64503;BME280;50971;51.940;21.258;2024-03-08T19:59:45;101026.36;;;-1.88;100.00
64503;BME280;50971;51.940;21.258;2024-03-08T20:09:48;101023.80;;;-2.20;100.00
64503;BME280;50971;51.940;21.258;2024-03-08T20:19:50;101025.21;;;-2.51;100.00
64503;BME280;50971;51.940;21.258;2024-03-08T20:29:53;101026.55;;;-2.79;100.00
64503;BME280;50971;51.940;21.258;2024-03-08T20:39:55;101026.30;;;-3.03;100.00
64503;BME280;50971;51.940;21.258;2024-03-08T20:49:57;101022.76;;;-3.23;100.00
64503;BME280;50971;51.940;21.258;2024-03-08T21:00:00;101022.89;;;-3.42;100.00
64503;BME280;50971;51.940;21.258;2024-03-08T21:10:06;101022.56;;;-3.55;100.00
64503;BME280;50971;51.940;21.258;2024-03-08T21:20:12;101020.02;;;-3.46;100.00
64503;BME280;50971;51.940;21.258;2024-03-08T21:30:17;101020.30;;;-3.29;100.00
64503;BME280;50971;51.940;21.258;2024-03-08T21:40:19;101016.14;;;-3.14;100.00
64503;BME280;50971;51.940;21.258;2024-03-08T21:50:29;101011.62;;;-2.94;100.00
64503;BME280;50971;51.940;21.258;2024-03-08T22:00:31;101001.63;;;-2.79;100.00
64503;BME280;50971;51.940;21.258;2024-03-08T22:10:37;100997.95;;;-2.71;100.00
64503;BME280;50971;51.940;21.258;2024-03-08T22:20:39;100997.70;;;-2.83;100.00
64503;BME280;50971;51.940;21.258;2024-03-08T22:30:41;100994.05;;;-3.06;100.00
64503;BME280;50971;51.940;21.258;2024-03-08T22:40:44;100990.02;;;-3.30;100.00
64503;BME280;50971;51.940;21.258;2024-03-08T22:50:46;100986.50;;;-3.54;100.00
